sensor_id;sensor_type;location;lat;lon;timestamp;P1;durP1;ratioP1;P2;durP2;ratioP2
59649;SDS011;46162;57.568;25.814;2022-10-14T00:01:26;6.97;;;2.27;;
59649;SDS011;46162;57.568;25.814;2022-10-14T00:03:57;7.53;;;1.73;;
59649;SDS011;46162;57.568;25.814;2022-10-14T00:06:27;6.30;;;1.98;;
59649;SDS011;46162;57.568;25.814;2022-10-14T00:08:58;10.55;;;2.38;;
59649;SDS011;46162;57.568;25.814;2022-10-14T00:11:29;6.95;;;1.88;;
59649;SDS011;46162;57.568;25.814;2022-10-14T00:14:01;12.52;;;2.30;;
59649;SDS011;46162;57.568;25.814;2022-10-14T00:16:32;8.30;;;1.98;;
59649;SDS011;46162;57.568;25.814;2022-10-14T00:19:02;8.02;;;2.17;;
59649;SDS011;46162;57.568;25.814;2022-10-14T00:21:32;8.32;;;2.35;;
59649;SDS011;46162;57.568;25.814;2022-10-14T00:24:03;6.68;;;2.20;;
59649;SDS011;46162;57.568;25.814;2022-10-14T00:26:34;8.10;;;1.92;;
59649;SDS011;46162;57.568;25.814;2022-10-14T00:29:05;7.35;;;1.92;;
59649;SDS011;46162;57.568;25.814;2022-10-14T00:31:38;8.20;;;2.50;;
59649;SDS011;46162;57.568;25.814;2022-10-14T00:34:07;6.82;;;2.45;;
59649;SDS011;46162;57.568;25.814;2022-10-14T00:36:38;6.38;;;2.38;;
59649;SDS011;46162;57.568;25.814;2022-10-14T00:39:12;7.65;;;2.20;;
59649;SDS011;46162;57.568;25.814;2022-10-14T00:41:42;8.95;;;2.72;;
59649;SDS011;46162;57.568;25.814;2022-10-14T00:47:13;6.90;;;2.03;;
59649;SDS011;46162;57.568;25.814;2022-10-14T00:49:42;8.57;;;2.53;;
59649;SDS011;46162;57.568;25.814;2022-10-14T00:54:44;14.00;;;2.22;;
59649;SDS011;46162;57.568;25.814;2022-10-14T00:57:17;7.25;;;2.33;;
59649;SDS011;46162;57.568;25.814;2022-10-14T00:59:47;12.07;;;2.17;;
59649;SDS011;46162;57.568;25.814;2022-10-14T01:02:16;7.47;;;2.05;;
59649;SDS011;46162;57.568;25.814;2022-10-14T01:04:44;8.48;;;2.45;;
59649;SDS011;46162;57.568;25.814;2022-10-14T01:07:14;10.30;;;2.40;;
59649;SDS011;46162;57.568;25.814;2022-10-14T01:09:52;11.55;;;2.28;;
59649;SDS011;46162;57.568;25.814;2022-10-14T01:12:32;9.52;;;2.53;;
59649;SDS011;46162;57.568;25.814;2022-10-14T01:15:10;8.15;;;1.92;;
59649;SDS011;46162;57.568;25.814;2022-10-14T01:17:49;10.77;;;2.28;;
59649;SDS011;46162;57.568;25.814;2022-10-14T01:23:50;9.07;;;2.45;;
59649;SDS011;46162;57.568;25.814;2022-10-14T01:26:58;7.53;;;2.38;;
59649;SDS011;46162;57.568;25.814;2022-10-14T01:32:43;10.35;;;2.30;;
59649;SDS011;46162;57.568;25.814;2022-10-14T01:35:21;11.73;;;2.72;;
59649;SDS011;46162;57.568;25.814;2022-10-14T01:37:57;8.95;;;2.58;;
59649;SDS011;46162;57.568;25.814;2022-10-14T01:40:32;13.90;;;2.15;;
59649;SDS011;46162;57.568;25.814;2022-10-14T01:43:05;12.07;;;2.33;;
59649;SDS011;46162;57.568;25.814;2022-10-14T01:45:36;8.38;;;2.42;;
59649;SDS011;46162;57.568;25.814;2022-10-14T01:48:10;10.45;;;2.10;;
59649;SDS011;46162;57.568;25.814;2022-10-14T01:50:44;10.63;;;2.63;;
59649;SDS011;46162;57.568;25.814;2022-10-14T01:53:16;11.55;;;2.38;;
59649;SDS011;46162;57.568;25.814;2022-10-14T01:55:49;12.48;;;1.85;;
59649;SDS011;46162;57.568;25.814;2022-10-14T01:58:21;7.75;;;1.70;;
59649;SDS011;46162;57.568;25.814;2022-10-14T02:00:55;7.80;;;1.85;;
59649;SDS011;46162;57.568;25.814;2022-10-14T02:03:23;11.40;;;2.22;;
59649;SDS011;46162;57.568;25.814;2022-10-14T02:05:53;8.38;;;2.45;;
59649;SDS011;46162;57.568;25.814;2022-10-14T02:08:29;10.07;;;2.10;;
59649;SDS011;46162;57.568;25.814;2022-10-14T02:11:07;10.85;;;2.03;;
59649;SDS011;46162;57.568;25.814;2022-10-14T02:13:44;7.18;;;2.05;;
59649;SDS011;46162;57.568;25.814;2022-10-14T02:16:26;7.88;;;1.73;;
59649;SDS011;46162;57.568;25.814;2022-10-14T02:19:07;9.63;;;2.00;;
59649;SDS011;46162;57.568;25.814;2022-10-14T02:21:44;10.82;;;2.40;;
59649;SDS011;46162;57.568;25.814;2022-10-14T02:24:19;8.23;;;2.10;;
59649;SDS011;46162;57.568;25.814;2022-10-14T02:26:52;10.75;;;2.30;;
59649;SDS011;46162;57.568;25.814;2022-10-14T02:29:24;12.02;;;2.53;;
59649;SDS011;46162;57.568;25.814;2022-10-14T02:31:57;10.73;;;2.28;;
59649;SDS011;46162;57.568;25.814;2022-10-14T02:34:29;11.88;;;2.45;;
59649;SDS011;46162;57.568;25.814;2022-10-14T02:36:59;7.70;;;2.33;;
59649;SDS011;46162;57.568;25.814;2022-10-14T02:39:31;8.52;;;2.20;;
59649;SDS011;46162;57.568;25.814;2022-10-14T02:42:04;9.45;;;1.73;;
59649;SDS011;46162;57.568;25.814;2022-10-14T02:44:33;11.77;;;2.33;;
59649;SDS011;46162;57.568;25.814;2022-10-14T02:47:03;9.98;;;1.98;;
59649;SDS011;46162;57.568;25.814;2022-10-14T02:49:32;9.40;;;2.70;;
59649;SDS011;46162;57.568;25.814;2022-10-14T02:52:01;9.85;;;2.20;;
59649;SDS011;46162;57.568;25.814;2022-10-14T02:54:29;10.10;;;2.20;;
59649;SDS011;46162;57.568;25.814;2022-10-14T02:56:58;9.32;;;2.05;;
59649;SDS011;46162;57.568;25.814;2022-10-14T02:59:27;11.98;;;2.72;;
59649;SDS011;46162;57.568;25.814;2022-10-14T03:01:56;8.55;;;2.10;;
59649;SDS011;46162;57.568;25.814;2022-10-14T03:04:27;8.93;;;2.35;;
59649;SDS011;46162;57.568;25.814;2022-10-14T03:06:56;8.95;;;2.13;;
59649;SDS011;46162;57.568;25.814;2022-10-14T03:09:26;8.67;;;2.00;;
59649;SDS011;46162;57.568;25.814;2022-10-14T03:11:56;8.75;;;2.65;;
59649;SDS011;46162;57.568;25.814;2022-10-14T03:14:25;7.53;;;2.08;;
59649;SDS011;46162;57.568;25.814;2022-10-14T03:16:55;8.70;;;2.45;;
59649;SDS011;46162;57.568;25.814;2022-10-14T03:19:27;8.57;;;2.22;;
59649;SDS011;46162;57.568;25.814;2022-10-14T03:21:56;5.68;;;2.00;;
59649;SDS011;46162;57.568;25.814;2022-10-14T03:24:25;11.38;;;2.53;;
59649;SDS011;46162;57.568;25.814;2022-10-14T03:27:13;10.63;;;2.40;;
59649;SDS011;46162;57.568;25.814;2022-10-14T03:29:44;7.18;;;1.80;;
59649;SDS011;46162;57.568;25.814;2022-10-14T03:32:18;8.98;;;1.73;;
59649;SDS011;46162;57.568;25.814;2022-10-14T03:35:20;6.20;;;1.83;;
59649;SDS011;46162;57.568;25.814;2022-10-14T03:37:52;7.05;;;1.58;;
59649;SDS011;46162;57.568;25.814;2022-10-14T03:40:27;7.65;;;2.08;;
59649;SDS011;46162;57.568;25.814;2022-10-14T03:45:35;4.85;;;1.35;;
59649;SDS011;46162;57.568;25.814;2022-10-14T03:48:05;10.38;;;1.95;;
59649;SDS011;46162;57.568;25.814;2022-10-14T03:50:39;10.50;;;2.05;;
59649;SDS011;46162;57.568;25.814;2022-10-14T03:55:38;6.93;;;1.45;;
59649;SDS011;46162;57.568;25.814;2022-10-14T03:58:07;10.18;;;2.10;;
59649;SDS011;46162;57.568;25.814;2022-10-14T04:00:45;7.72;;;1.70;;
59649;SDS011;46162;57.568;25.814;2022-10-14T04:03:28;6.78;;;1.80;;
59649;SDS011;46162;57.568;25.814;2022-10-14T04:05:58;7.03;;;1.63;;
59649;SDS011;46162;57.568;25.814;2022-10-14T04:08:28;9.82;;;1.77;;
59649;SDS011;46162;57.568;25.814;2022-10-14T04:11:01;6.45;;;1.42;;
59649;SDS011;46162;57.568;25.814;2022-10-14T04:13:35;8.10;;;1.67;;
59649;SDS011;46162;57.568;25.814;2022-10-14T04:16:04;6.90;;;1.85;;
59649;SDS011;46162;57.568;25.814;2022-10-14T04:18:56;8.77;;;2.08;;
59649;SDS011;46162;57.568;25.814;2022-10-14T04:21:27;6.80;;;1.33;;
59649;SDS011;46162;57.568;25.814;2022-10-14T04:26:48;8.38;;;1.90;;
59649;SDS011;46162;57.568;25.814;2022-10-14T04:29:26;5.78;;;1.50;;
59649;SDS011;46162;57.568;25.814;2022-10-14T04:32:01;9.93;;;1.70;;
59649;SDS011;46162;57.568;25.814;2022-10-14T04:34:30;7.45;;;1.10;;
59649;SDS011;46162;57.568;25.814;2022-10-14T04:37:00;9.15;;;2.10;;
59649;SDS011;46162;57.568;25.814;2022-10-14T04:39:51;8.48;;;2.10;;
59649;SDS011;46162;57.568;25.814;2022-10-14T04:42:20;6.85;;;1.60;;
59649;SDS011;46162;57.568;25.814;2022-10-14T04:44:54;6.18;;;1.23;;
59649;SDS011;46162;57.568;25.814;2022-10-14T04:47:33;8.50;;;1.55;;
59649;SDS011;46162;57.568;25.814;2022-10-14T04:50:02;8.38;;;2.00;;
59649;SDS011;46162;57.568;25.814;2022-10-14T04:52:33;8.48;;;1.38;;
59649;SDS011;46162;57.568;25.814;2022-10-14T04:55:09;9.00;;;1.90;;
59649;SDS011;46162;57.568;25.814;2022-10-14T04:57:41;7.20;;;1.40;;
59649;SDS011;46162;57.568;25.814;2022-10-14T05:00:10;6.60;;;1.85;;
59649;SDS011;46162;57.568;25.814;2022-10-14T05:03:00;7.07;;;1.30;;
59649;SDS011;46162;57.568;25.814;2022-10-14T05:05:33;7.60;;;1.45;;
59649;SDS011;46162;57.568;25.814;2022-10-14T05:08:05;6.30;;;1.50;;
59649;SDS011;46162;57.568;25.814;2022-10-14T05:10:38;13.55;;;1.77;;
59649;SDS011;46162;57.568;25.814;2022-10-14T05:13:13;8.02;;;1.25;;
59649;SDS011;46162;57.568;25.814;2022-10-14T05:15:53;6.63;;;1.27;;
59649;SDS011;46162;57.568;25.814;2022-10-14T05:18:22;9.13;;;1.50;;
59649;SDS011;46162;57.568;25.814;2022-10-14T05:20:58;10.85;;;1.48;;
59649;SDS011;46162;57.568;25.814;2022-10-14T05:24:04;7.35;;;1.25;;
59649;SDS011;46162;57.568;25.814;2022-10-14T05:26:36;7.10;;;1.13;;
59649;SDS011;46162;57.568;25.814;2022-10-14T05:29:09;11.18;;;1.85;;
59649;SDS011;46162;57.568;25.814;2022-10-14T05:31:39;6.35;;;1.20;;
59649;SDS011;46162;57.568;25.814;2022-10-14T05:34:26;6.35;;;0.98;;
59649;SDS011;46162;57.568;25.814;2022-10-14T05:36:56;6.55;;;1.10;;
59649;SDS011;46162;57.568;25.814;2022-10-14T05:39:29;6.00;;;1.33;;
59649;SDS011;46162;57.568;25.814;2022-10-14T05:41:58;9.57;;;1.50;;
59649;SDS011;46162;57.568;25.814;2022-10-14T05:44:28;12.32;;;1.35;;
59649;SDS011;46162;57.568;25.814;2022-10-14T05:46:57;8.80;;;1.33;;
59649;SDS011;46162;57.568;25.814;2022-10-14T05:49:26;6.13;;;1.05;;
59649;SDS011;46162;57.568;25.814;2022-10-14T05:51:56;9.68;;;1.60;;
59649;SDS011;46162;57.568;25.814;2022-10-14T05:54:25;8.52;;;1.05;;
59649;SDS011;46162;57.568;25.814;2022-10-14T05:56:57;10.27;;;1.75;;
59649;SDS011;46162;57.568;25.814;2022-10-14T05:59:26;10.27;;;1.40;;
59649;SDS011;46162;57.568;25.814;2022-10-14T06:01:56;9.85;;;1.50;;
59649;SDS011;46162;57.568;25.814;2022-10-14T06:04:25;5.90;;;1.08;;
59649;SDS011;46162;57.568;25.814;2022-10-14T06:06:54;7.18;;;1.63;;
59649;SDS011;46162;57.568;25.814;2022-10-14T06:09:23;5.63;;;0.98;;
59649;SDS011;46162;57.568;25.814;2022-10-14T06:11:51;6.55;;;1.58;;
59649;SDS011;46162;57.568;25.814;2022-10-14T06:14:22;10.60;;;1.42;;
59649;SDS011;46162;57.568;25.814;2022-10-14T06:16:51;8.85;;;1.20;;
59649;SDS011;46162;57.568;25.814;2022-10-14T06:19:20;6.30;;;1.05;;
59649;SDS011;46162;57.568;25.814;2022-10-14T06:21:49;7.00;;;1.35;;
59649;SDS011;46162;57.568;25.814;2022-10-14T06:24:18;8.93;;;1.45;;
59649;SDS011;46162;57.568;25.814;2022-10-14T06:26:46;6.05;;;1.05;;
59649;SDS011;46162;57.568;25.814;2022-10-14T06:29:15;6.38;;;1.40;;
59649;SDS011;46162;57.568;25.814;2022-10-14T06:31:45;6.72;;;1.35;;
59649;SDS011;46162;57.568;25.814;2022-10-14T06:34:14;8.45;;;1.25;;
59649;SDS011;46162;57.568;25.814;2022-10-14T06:36:44;6.97;;;1.58;;
59649;SDS011;46162;57.568;25.814;2022-10-14T06:39:12;8.02;;;1.02;;
59649;SDS011;46162;57.568;25.814;2022-10-14T06:41:41;8.23;;;1.63;;
59649;SDS011;46162;57.568;25.814;2022-10-14T06:44:17;6.88;;;1.25;;
59649;SDS011;46162;57.568;25.814;2022-10-14T06:46:47;6.35;;;1.10;;
59649;SDS011;46162;57.568;25.814;2022-10-14T06:49:16;10.18;;;1.23;;
59649;SDS011;46162;57.568;25.814;2022-10-14T06:51:45;8.75;;;1.60;;
59649;SDS011;46162;57.568;25.814;2022-10-14T06:54:15;7.85;;;1.52;;
59649;SDS011;46162;57.568;25.814;2022-10-14T06:56:43;8.57;;;1.40;;
59649;SDS011;46162;57.568;25.814;2022-10-14T06:59:12;6.95;;;1.20;;
59649;SDS011;46162;57.568;25.814;2022-10-14T07:01:40;9.13;;;1.58;;
59649;SDS011;46162;57.568;25.814;2022-10-14T07:04:11;10.27;;;2.05;;
59649;SDS011;46162;57.568;25.814;2022-10-14T07:06:39;11.23;;;1.17;;
59649;SDS011;46162;57.568;25.814;2022-10-14T07:09:08;9.88;;;1.42;;
59649;SDS011;46162;57.568;25.814;2022-10-14T07:11:37;8.95;;;1.30;;
59649;SDS011;46162;57.568;25.814;2022-10-14T07:14:06;7.63;;;1.27;;
59649;SDS011;46162;57.568;25.814;2022-10-14T07:16:35;5.57;;;0.88;;
59649;SDS011;46162;57.568;25.814;2022-10-14T07:19:04;11.70;;;1.20;;
59649;SDS011;46162;57.568;25.814;2022-10-14T07:21:34;10.52;;;1.25;;
59649;SDS011;46162;57.568;25.814;2022-10-14T07:24:03;6.03;;;1.20;;
59649;SDS011;46162;57.568;25.814;2022-10-14T07:26:32;5.63;;;1.00;;
59649;SDS011;46162;57.568;25.814;2022-10-14T07:29:02;10.15;;;1.38;;
59649;SDS011;46162;57.568;25.814;2022-10-14T07:31:31;10.68;;;1.30;;
59649;SDS011;46162;57.568;25.814;2022-10-14T07:34:00;8.55;;;1.73;;
59649;SDS011;46162;57.568;25.814;2022-10-14T07:36:28;8.43;;;1.20;;
59649;SDS011;46162;57.568;25.814;2022-10-14T07:38:59;5.78;;;1.05;;
59649;SDS011;46162;57.568;25.814;2022-10-14T07:41:28;9.43;;;1.40;;
59649;SDS011;46162;57.568;25.814;2022-10-14T07:43:58;6.47;;;1.10;;
59649;SDS011;46162;57.568;25.814;2022-10-14T07:46:32;7.82;;;1.10;;
59649;SDS011;46162;57.568;25.814;2022-10-14T07:49:02;5.03;;;0.85;;
59649;SDS011;46162;57.568;25.814;2022-10-14T07:51:33;8.23;;;1.40;;
59649;SDS011;46162;57.568;25.814;2022-10-14T07:54:04;9.02;;;1.27;;
59649;SDS011;46162;57.568;25.814;2022-10-14T07:56:35;9.00;;;1.30;;
59649;SDS011;46162;57.568;25.814;2022-10-14T07:59:04;9.70;;;1.10;;
59649;SDS011;46162;57.568;25.814;2022-10-14T08:01:33;7.32;;;1.10;;
59649;SDS011;46162;57.568;25.814;2022-10-14T08:04:02;7.38;;;1.08;;
59649;SDS011;46162;57.568;25.814;2022-10-14T08:06:31;5.70;;;0.77;;
59649;SDS011;46162;57.568;25.814;2022-10-14T08:09:00;7.50;;;0.82;;
59649;SDS011;46162;57.568;25.814;2022-10-14T08:11:33;7.28;;;1.38;;
59649;SDS011;46162;57.568;25.814;2022-10-14T08:14:02;6.95;;;1.23;;
59649;SDS011;46162;57.568;25.814;2022-10-14T08:16:32;6.28;;;0.82;;
59649;SDS011;46162;57.568;25.814;2022-10-14T08:19:03;10.20;;;0.90;;
59649;SDS011;46162;57.568;25.814;2022-10-14T08:21:40;5.95;;;0.73;;
59649;SDS011;46162;57.568;25.814;2022-10-14T08:24:11;8.60;;;1.05;;
59649;SDS011;46162;57.568;25.814;2022-10-14T08:26:41;5.55;;;0.98;;
59649;SDS011;46162;57.568;25.814;2022-10-14T08:29:17;7.75;;;1.05;;
59649;SDS011;46162;57.568;25.814;2022-10-14T08:34:17;11.93;;;1.23;;
59649;SDS011;46162;57.568;25.814;2022-10-14T08:36:47;7.15;;;0.90;;
59649;SDS011;46162;57.568;25.814;2022-10-14T08:39:17;7.90;;;0.93;;
59649;SDS011;46162;57.568;25.814;2022-10-14T08:41:56;7.43;;;0.82;;
59649;SDS011;46162;57.568;25.814;2022-10-14T08:44:39;5.85;;;0.98;;
59649;SDS011;46162;57.568;25.814;2022-10-14T08:47:12;8.98;;;0.80;;
59649;SDS011;46162;57.568;25.814;2022-10-14T08:52:17;8.65;;;0.90;;
59649;SDS011;46162;57.568;25.814;2022-10-14T08:54:53;8.88;;;1.00;;
59649;SDS011;46162;57.568;25.814;2022-10-14T08:57:27;7.50;;;1.10;;
59649;SDS011;46162;57.568;25.814;2022-10-14T09:00:10;6.93;;;1.00;;
59649;SDS011;46162;57.568;25.814;2022-10-14T09:02:41;7.13;;;1.35;;
59649;SDS011;46162;57.568;25.814;2022-10-14T09:05:13;11.98;;;1.20;;
59649;SDS011;46162;57.568;25.814;2022-10-14T09:07:43;6.55;;;0.70;;
59649;SDS011;46162;57.568;25.814;2022-10-14T09:10:17;8.82;;;0.90;;
59649;SDS011;46162;57.568;25.814;2022-10-14T09:12:53;7.35;;;1.10;;
59649;SDS011;46162;57.568;25.814;2022-10-14T09:15:26;6.13;;;0.50;;
59649;SDS011;46162;57.568;25.814;2022-10-14T09:18:03;6.65;;;0.90;;
59649;SDS011;46162;57.568;25.814;2022-10-14T09:20:35;8.20;;;0.95;;
59649;SDS011;46162;57.568;25.814;2022-10-14T09:23:10;6.07;;;0.70;;
59649;SDS011;46162;57.568;25.814;2022-10-14T09:25:46;8.43;;;1.02;;
59649;SDS011;46162;57.568;25.814;2022-10-14T09:28:21;9.63;;;0.85;;
59649;SDS011;46162;57.568;25.814;2022-10-14T09:31:00;5.78;;;0.88;;
59649;SDS011;46162;57.568;25.814;2022-10-14T09:33:29;7.95;;;0.85;;
59649;SDS011;46162;57.568;25.814;2022-10-14T09:36:05;10.40;;;1.30;;
59649;SDS011;46162;57.568;25.814;2022-10-14T09:38:41;6.20;;;1.00;;
59649;SDS011;46162;57.568;25.814;2022-10-14T09:41:11;9.27;;;0.90;;
59649;SDS011;46162;57.568;25.814;2022-10-14T09:46:40;7.97;;;0.90;;
59649;SDS011;46162;57.568;25.814;2022-10-14T09:49:12;7.25;;;0.90;;
59649;SDS011;46162;57.568;25.814;2022-10-14T09:51:45;5.88;;;1.13;;
59649;SDS011;46162;57.568;25.814;2022-10-14T09:54:19;7.40;;;0.88;;
59649;SDS011;46162;57.568;25.814;2022-10-14T09:56:58;11.18;;;1.23;;
59649;SDS011;46162;57.568;25.814;2022-10-14T09:59:29;7.35;;;0.95;;
59649;SDS011;46162;57.568;25.814;2022-10-14T10:01:59;7.90;;;1.25;;
59649;SDS011;46162;57.568;25.814;2022-10-14T10:04:32;6.38;;;0.90;;
59649;SDS011;46162;57.568;25.814;2022-10-14T10:07:03;5.32;;;1.00;;
59649;SDS011;46162;57.568;25.814;2022-10-14T10:09:34;6.57;;;0.82;;
59649;SDS011;46162;57.568;25.814;2022-10-14T10:12:16;10.45;;;1.13;;
59649;SDS011;46162;57.568;25.814;2022-10-14T10:14:54;7.05;;;1.02;;
59649;SDS011;46162;57.568;25.814;2022-10-14T10:17:24;10.82;;;1.40;;
59649;SDS011;46162;57.568;25.814;2022-10-14T10:20:06;7.40;;;0.90;;
59649;SDS011;46162;57.568;25.814;2022-10-14T10:22:43;8.63;;;0.50;;
59649;SDS011;46162;57.568;25.814;2022-10-14T10:25:17;7.13;;;0.60;;
59649;SDS011;46162;57.568;25.814;2022-10-14T10:27:48;4.65;;;0.80;;
59649;SDS011;46162;57.568;25.814;2022-10-14T10:30:20;5.05;;;0.70;;
59649;SDS011;46162;57.568;25.814;2022-10-14T10:32:53;8.65;;;0.82;;
59649;SDS011;46162;57.568;25.814;2022-10-14T10:35:31;6.40;;;1.00;;
59649;SDS011;46162;57.568;25.814;2022-10-14T10:38:14;7.50;;;0.70;;
59649;SDS011;46162;57.568;25.814;2022-10-14T10:40:53;7.32;;;0.98;;
59649;SDS011;46162;57.568;25.814;2022-10-14T10:43:43;4.00;;;0.50;;
59649;SDS011;46162;57.568;25.814;2022-10-14T10:46:31;6.88;;;0.98;;
59649;SDS011;46162;57.568;25.814;2022-10-14T10:49:18;8.43;;;1.08;;
59649;SDS011;46162;57.568;25.814;2022-10-14T10:52:11;10.27;;;0.70;;
59649;SDS011;46162;57.568;25.814;2022-10-14T10:54:52;5.78;;;0.75;;
59649;SDS011;46162;57.568;25.814;2022-10-14T10:57:31;5.28;;;0.82;;
59649;SDS011;46162;57.568;25.814;2022-10-14T11:00:13;8.52;;;0.95;;
59649;SDS011;46162;57.568;25.814;2022-10-14T11:02:51;6.88;;;0.60;;
59649;SDS011;46162;57.568;25.814;2022-10-14T11:05:28;6.35;;;0.60;;
59649;SDS011;46162;57.568;25.814;2022-10-14T11:08:09;6.00;;;0.90;;
59649;SDS011;46162;57.568;25.814;2022-10-14T11:11:08;7.47;;;0.70;;
59649;SDS011;46162;57.568;25.814;2022-10-14T11:14:05;8.25;;;1.23;;
59649;SDS011;46162;57.568;25.814;2022-10-14T11:16:42;3.97;;;0.52;;
59649;SDS011;46162;57.568;25.814;2022-10-14T11:19:20;6.53;;;0.70;;
59649;SDS011;46162;57.568;25.814;2022-10-14T11:21:57;7.20;;;0.70;;
59649;SDS011;46162;57.568;25.814;2022-10-14T11:24:34;6.85;;;1.60;;
59649;SDS011;46162;57.568;25.814;2022-10-14T11:27:12;6.90;;;0.95;;
59649;SDS011;46162;57.568;25.814;2022-10-14T11:30:00;7.18;;;0.70;;
59649;SDS011;46162;57.568;25.814;2022-10-14T11:32:44;5.57;;;1.05;;
59649;SDS011;46162;57.568;25.814;2022-10-14T11:35:29;5.80;;;0.40;;
59649;SDS011;46162;57.568;25.814;2022-10-14T11:38:12;7.28;;;0.70;;
59649;SDS011;46162;57.568;25.814;2022-10-14T11:40:54;8.23;;;0.63;;
59649;SDS011;46162;57.568;25.814;2022-10-14T11:43:31;5.65;;;0.50;;
59649;SDS011;46162;57.568;25.814;2022-10-14T11:46:10;7.45;;;0.35;;
59649;SDS011;46162;57.568;25.814;2022-10-14T11:48:43;5.47;;;0.65;;
59649;SDS011;46162;57.568;25.814;2022-10-14T11:51:18;6.78;;;0.50;;
59649;SDS011;46162;57.568;25.814;2022-10-14T11:53:54;7.18;;;1.05;;
59649;SDS011;46162;57.568;25.814;2022-10-14T11:56:31;7.13;;;0.60;;
59649;SDS011;46162;57.568;25.814;2022-10-14T11:59:08;6.90;;;0.65;;
59649;SDS011;46162;57.568;25.814;2022-10-14T12:02:10;7.07;;;0.70;;
59649;SDS011;46162;57.568;25.814;2022-10-14T12:04:51;7.32;;;0.57;;
59649;SDS011;46162;57.568;25.814;2022-10-14T12:07:25;8.48;;;1.17;;
59649;SDS011;46162;57.568;25.814;2022-10-14T12:09:59;8.98;;;0.70;;
59649;SDS011;46162;57.568;25.814;2022-10-14T12:12:31;5.47;;;0.40;;
59649;SDS011;46162;57.568;25.814;2022-10-14T12:15:06;7.50;;;0.52;;
59649;SDS011;46162;57.568;25.814;2022-10-14T12:17:43;6.80;;;0.60;;
59649;SDS011;46162;57.568;25.814;2022-10-14T12:20:18;10.52;;;0.90;;
59649;SDS011;46162;57.568;25.814;2022-10-14T12:22:54;7.18;;;0.52;;
59649;SDS011;46162;57.568;25.814;2022-10-14T12:25:26;10.82;;;0.80;;
59649;SDS011;46162;57.568;25.814;2022-10-14T12:28:02;8.50;;;0.70;;
59649;SDS011;46162;57.568;25.814;2022-10-14T12:30:33;6.93;;;0.50;;
59649;SDS011;46162;57.568;25.814;2022-10-14T12:33:04;4.63;;;0.43;;
59649;SDS011;46162;57.568;25.814;2022-10-14T12:35:49;9.30;;;0.90;;
59649;SDS011;46162;57.568;25.814;2022-10-14T12:38:20;6.70;;;0.50;;
59649;SDS011;46162;57.568;25.814;2022-10-14T12:40:48;5.60;;;0.70;;
59649;SDS011;46162;57.568;25.814;2022-10-14T12:43:19;6.55;;;0.68;;
59649;SDS011;46162;57.568;25.814;2022-10-14T12:45:57;8.60;;;0.80;;
59649;SDS011;46162;57.568;25.814;2022-10-14T12:48:29;10.60;;;0.80;;
59649;SDS011;46162;57.568;25.814;2022-10-14T12:51:09;5.25;;;0.70;;
59649;SDS011;46162;57.568;25.814;2022-10-14T12:53:47;5.90;;;1.05;;
59649;SDS011;46162;57.568;25.814;2022-10-14T12:56:32;4.80;;;0.60;;
59649;SDS011;46162;57.568;25.814;2022-10-14T12:59:18;8.77;;;0.82;;
59649;SDS011;46162;57.568;25.814;2022-10-14T13:01:57;4.85;;;0.73;;
59649;SDS011;46162;57.568;25.814;2022-10-14T13:04:30;7.05;;;0.75;;
59649;SDS011;46162;57.568;25.814;2022-10-14T13:07:26;7.40;;;1.00;;
59649;SDS011;46162;57.568;25.814;2022-10-14T13:10:26;5.43;;;0.68;;
59649;SDS011;46162;57.568;25.814;2022-10-14T13:19:37;7.72;;;0.80;;
59649;SDS011;46162;57.568;25.814;2022-10-14T13:25:11;7.93;;;0.95;;
59649;SDS011;46162;57.568;25.814;2022-10-14T13:27:56;5.20;;;0.90;;
59649;SDS011;46162;57.568;25.814;2022-10-14T13:30:33;7.00;;;1.08;;
59649;SDS011;46162;57.568;25.814;2022-10-14T13:33:12;7.72;;;1.05;;
59649;SDS011;46162;57.568;25.814;2022-10-14T13:35:47;9.70;;;0.98;;
59649;SDS011;46162;57.568;25.814;2022-10-14T13:38:26;8.38;;;0.85;;
59649;SDS011;46162;57.568;25.814;2022-10-14T13:40:55;7.32;;;0.60;;
59649;SDS011;46162;57.568;25.814;2022-10-14T13:43:26;6.95;;;1.02;;
59649;SDS011;46162;57.568;25.814;2022-10-14T13:46:01;8.13;;;1.00;;
59649;SDS011;46162;57.568;25.814;2022-10-14T13:48:34;6.70;;;1.00;;
59649;SDS011;46162;57.568;25.814;2022-10-14T13:51:23;7.40;;;1.02;;
59649;SDS011;46162;57.568;25.814;2022-10-14T13:54:15;5.35;;;0.98;;
59649;SDS011;46162;57.568;25.814;2022-10-14T13:56:59;7.10;;;1.10;;
59649;SDS011;46162;57.568;25.814;2022-10-14T13:59:49;4.90;;;0.77;;
59649;SDS011;46162;57.568;25.814;2022-10-14T14:02:38;6.25;;;1.17;;
59649;SDS011;46162;57.568;25.814;2022-10-14T14:05:14;3.95;;;0.65;;
59649;SDS011;46162;57.568;25.814;2022-10-14T14:07:46;7.38;;;1.00;;
59649;SDS011;46162;57.568;25.814;2022-10-14T14:10:38;5.88;;;1.10;;
59649;SDS011;46162;57.568;25.814;2022-10-14T14:13:28;7.65;;;1.40;;
59649;SDS011;46162;57.568;25.814;2022-10-14T14:15:59;8.65;;;1.42;;
59649;SDS011;46162;57.568;25.814;2022-10-14T14:18:32;8.88;;;1.30;;
59649;SDS011;46162;57.568;25.814;2022-10-14T14:21:23;7.35;;;1.27;;
59649;SDS011;46162;57.568;25.814;2022-10-14T14:23:54;13.98;;;1.38;;
59649;SDS011;46162;57.568;25.814;2022-10-14T14:26:27;5.72;;;1.30;;
59649;SDS011;46162;57.568;25.814;2022-10-14T14:29:02;7.80;;;1.33;;
59649;SDS011;46162;57.568;25.814;2022-10-14T14:31:32;7.43;;;1.17;;
59649;SDS011;46162;57.568;25.814;2022-10-14T14:34:22;7.70;;;1.33;;
59649;SDS011;46162;57.568;25.814;2022-10-14T14:36:51;7.40;;;1.58;;
59649;SDS011;46162;57.568;25.814;2022-10-14T14:39:32;7.93;;;1.50;;
59649;SDS011;46162;57.568;25.814;2022-10-14T14:42:02;8.48;;;1.35;;
59649;SDS011;46162;57.568;25.814;2022-10-14T14:44:31;8.50;;;2.00;;
59649;SDS011;46162;57.568;25.814;2022-10-14T14:47:02;6.25;;;1.35;;
59649;SDS011;46162;57.568;25.814;2022-10-14T14:49:32;11.25;;;1.75;;
59649;SDS011;46162;57.568;25.814;2022-10-14T14:52:05;10.20;;;1.42;;
59649;SDS011;46162;57.568;25.814;2022-10-14T14:54:42;7.53;;;1.50;;
59649;SDS011;46162;57.568;25.814;2022-10-14T14:57:14;8.05;;;1.45;;
59649;SDS011;46162;57.568;25.814;2022-10-14T14:59:49;9.40;;;1.50;;
59649;SDS011;46162;57.568;25.814;2022-10-14T15:02:24;6.07;;;1.35;;
59649;SDS011;46162;57.568;25.814;2022-10-14T15:04:59;7.30;;;1.45;;
59649;SDS011;46162;57.568;25.814;2022-10-14T15:07:29;8.15;;;1.70;;
59649;SDS011;46162;57.568;25.814;2022-10-14T15:09:59;10.85;;;2.05;;
59649;SDS011;46162;57.568;25.814;2022-10-14T15:12:34;9.05;;;1.85;;
59649;SDS011;46162;57.568;25.814;2022-10-14T15:15:21;10.10;;;1.55;;
59649;SDS011;46162;57.568;25.814;2022-10-14T15:18:10;6.68;;;1.80;;
59649;SDS011;46162;57.568;25.814;2022-10-14T15:20:41;10.85;;;2.20;;
59649;SDS011;46162;57.568;25.814;2022-10-14T15:26:21;10.05;;;1.67;;
59649;SDS011;46162;57.568;25.814;2022-10-14T15:32:05;8.50;;;2.33;;
59649;SDS011;46162;57.568;25.814;2022-10-14T15:34:40;13.68;;;2.20;;
59649;SDS011;46162;57.568;25.814;2022-10-14T15:37:10;9.02;;;2.25;;
59649;SDS011;46162;57.568;25.814;2022-10-14T15:39:42;8.90;;;2.13;;
59649;SDS011;46162;57.568;25.814;2022-10-14T15:42:12;9.75;;;2.40;;
59649;SDS011;46162;57.568;25.814;2022-10-14T15:44:42;11.45;;;2.20;;
59649;SDS011;46162;57.568;25.814;2022-10-14T15:47:14;8.95;;;1.90;;
59649;SDS011;46162;57.568;25.814;2022-10-14T15:49:49;11.10;;;2.58;;
59649;SDS011;46162;57.568;25.814;2022-10-14T15:52:17;11.65;;;2.03;;
59649;SDS011;46162;57.568;25.814;2022-10-14T15:54:52;10.13;;;2.53;;
59649;SDS011;46162;57.568;25.814;2022-10-14T15:57:21;9.85;;;2.58;;